createdAt,value
2019-05-25T00:02:02.096Z,7.53
2019-05-25T00:04:32.906Z,7.83
2019-05-25T00:07:03.769Z,9.10
2019-05-25T00:09:34.616Z,7.47
2019-05-25T00:12:05.417Z,9.23
2019-05-25T00:14:36.152Z,9.07
2019-05-25T00:17:06.945Z,7.37
2019-05-25T00:19:37.702Z,7.27
2019-05-25T00:22:08.635Z,8.00
2019-05-25T00:24:39.356Z,10.37
2019-05-25T00:27:11.247Z,8.47
2019-05-25T00:29:41.973Z,7.63
2019-05-25T00:32:13.050Z,8.17
2019-05-25T00:34:44.855Z,7.83
2019-05-25T00:37:15.720Z,7.30
2019-05-25T00:39:46.613Z,6.23
2019-05-25T00:42:17.408Z,5.80
2019-05-25T00:44:48.126Z,4.93
2019-05-25T00:47:18.937Z,3.93
2019-05-25T00:49:49.769Z,4.10
2019-05-25T00:52:20.666Z,5.00
2019-05-25T00:54:51.487Z,4.83
2019-05-25T00:57:22.347Z,4.27
2019-05-25T00:59:53.172Z,3.53
2019-05-25T01:02:23.981Z,5.70
2019-05-25T01:04:54.719Z,4.07
2019-05-25T01:07:25.488Z,6.97
2019-05-25T01:09:56.259Z,6.60
2019-05-25T01:12:27.048Z,4.37
2019-05-25T01:14:57.788Z,4.30
2019-05-25T01:17:28.575Z,5.20
2019-05-25T01:19:59.492Z,4.87
2019-05-25T01:22:30.378Z,5.00
2019-05-25T01:25:01.240Z,7.07
2019-05-25T01:27:32.125Z,7.20
2019-05-25T01:30:02.946Z,5.40
2019-05-25T01:32:33.967Z,5.17
2019-05-25T01:35:04.830Z,5.50
2019-05-25T01:37:35.621Z,6.20
2019-05-25T01:40:07.836Z,4.43
2019-05-25T01:42:38.792Z,7.90
2019-05-25T01:45:11.420Z,4.87
2019-05-25T01:47:43.402Z,5.83
2019-05-25T01:50:14.530Z,4.93
2019-05-25T01:52:45.317Z,5.80
2019-05-25T01:55:16.265Z,9.00
2019-05-25T01:57:47.050Z,5.53
2019-05-25T02:00:18.405Z,5.40
2019-05-25T02:02:49.311Z,5.53
2019-05-25T02:05:20.218Z,5.80
2019-05-25T02:07:51.103Z,6.17
2019-05-25T02:10:21.937Z,6.03
2019-05-25T02:12:52.759Z,6.70
2019-05-25T02:15:23.691Z,5.90
2019-05-25T02:17:54.495Z,7.23
2019-05-25T02:20:25.317Z,8.90
2019-05-25T02:22:56.136Z,6.47
2019-05-25T02:25:26.896Z,7.00
2019-05-25T02:27:57.680Z,8.07
2019-05-25T02:30:28.658Z,10.67
2019-05-25T02:32:59.528Z,8.27
2019-05-25T02:35:30.377Z,9.20
2019-05-25T02:38:01.256Z,7.67
2019-05-25T02:40:32.129Z,8.83
2019-05-25T02:43:02.937Z,12.07
2019-05-25T02:45:33.769Z,10.07
2019-05-25T02:48:04.668Z,10.30
2019-05-25T02:50:35.406Z,11.63
2019-05-25T02:53:06.286Z,11.90
2019-05-25T02:55:37.040Z,9.90
2019-05-25T02:58:07.839Z,13.40
2019-05-25T03:00:38.779Z,13.10
2019-05-25T03:03:09.600Z,11.47
2019-05-25T03:05:40.473Z,11.23
2019-05-25T03:08:11.275Z,11.17
2019-05-25T03:10:42.197Z,13.37
2019-05-25T03:13:13.074Z,12.20
2019-05-25T03:15:43.816Z,10.90
2019-05-25T03:18:14.633Z,13.17
2019-05-25T03:20:45.360Z,13.57
2019-05-25T03:23:16.169Z,17.03
2019-05-25T03:25:49.964Z,13.80
2019-05-25T03:28:19.497Z,13.43
2019-05-25T03:30:50.366Z,15.43
2019-05-25T03:33:21.179Z,13.43
2019-05-25T03:35:51.977Z,11.47
2019-05-25T03:38:23.808Z,13.13
2019-05-25T03:40:54.578Z,13.20
2019-05-25T03:43:25.376Z,11.33
2019-05-25T03:45:56.136Z,9.80
2019-05-25T03:48:26.948Z,8.57
2019-05-25T03:50:58.307Z,6.03
2019-05-25T03:53:29.178Z,8.07
2019-05-25T03:56:05.833Z,6.60
2019-05-25T03:58:32.408Z,6.13
2019-05-25T04:01:03.160Z,8.10
2019-05-25T04:03:33.977Z,4.67
2019-05-25T04:06:04.766Z,5.87
2019-05-25T04:08:35.698Z,8.43
2019-05-25T04:11:06.525Z,4.53
2019-05-25T04:13:37.408Z,6.00
2019-05-25T04:16:08.387Z,5.10
2019-05-25T04:18:40.408Z,6.33
2019-05-25T04:21:11.298Z,5.93
2019-05-25T04:23:42.289Z,7.83
2019-05-25T04:26:22.083Z,5.53
2019-05-25T04:28:45.477Z,7.33
2019-05-25T04:31:16.398Z,5.57
2019-05-25T04:33:47.249Z,3.77
2019-05-25T04:36:18.086Z,6.50
2019-05-25T04:38:50.003Z,8.00
2019-05-25T04:41:20.800Z,7.63
2019-05-25T04:44:06.160Z,3.77
2019-05-25T04:46:42.393Z,4.87
2019-05-25T04:49:14.138Z,3.73
2019-05-25T04:51:45.967Z,4.10
2019-05-25T04:54:17.859Z,4.63
2019-05-25T04:56:49.403Z,6.30
2019-05-25T04:59:21.009Z,5.27
2019-05-25T05:01:52.040Z,5.00
2019-05-25T05:04:23.596Z,5.93
2019-05-25T05:06:55.132Z,4.80
2019-05-25T05:09:26.782Z,8.57
2019-05-25T05:11:57.839Z,3.93
2019-05-25T05:14:29.343Z,3.33
2019-05-25T05:17:00.465Z,5.13
2019-05-25T05:19:32.058Z,9.57
2019-05-25T05:22:05.971Z,4.13
2019-05-25T05:24:38.129Z,5.00
2019-05-25T05:27:09.810Z,7.57
2019-05-25T05:29:40.902Z,4.87
2019-05-25T05:32:24.902Z,5.23
2019-05-25T05:34:44.986Z,4.70
2019-05-25T05:37:16.705Z,5.37
2019-05-25T05:39:48.410Z,4.70
2019-05-25T05:42:21.480Z,7.77
2019-05-25T05:44:55.100Z,6.30
2019-05-25T05:47:27.113Z,4.43
2019-05-25T05:50:00.811Z,10.30
2019-05-25T05:52:35.282Z,3.83
2019-05-25T05:55:07.708Z,5.93
2019-05-25T05:57:39.429Z,4.13
2019-05-25T06:00:12.289Z,3.10
2019-05-25T06:02:43.702Z,6.27
2019-05-25T06:05:15.913Z,4.07
2019-05-25T06:07:48.897Z,4.00
2019-05-25T06:10:23.204Z,3.20
2019-05-25T06:12:55.253Z,3.37
2019-05-25T06:15:28.073Z,3.47
2019-05-25T06:17:59.028Z,3.93
2019-05-25T06:20:29.982Z,11.00
2019-05-25T06:23:00.785Z,3.00
2019-05-25T06:25:31.586Z,4.20
2019-05-25T06:28:02.368Z,3.80
2019-05-25T06:30:33.182Z,4.67
2019-05-25T06:33:04.119Z,5.40
2019-05-25T06:35:34.943Z,4.20
2019-05-25T06:38:05.962Z,7.33
2019-05-25T06:40:36.867Z,5.13
2019-05-25T06:43:07.964Z,4.97
2019-05-25T06:45:38.802Z,4.17
2019-05-25T06:48:09.830Z,5.73
2019-05-25T06:50:40.603Z,4.73
2019-05-25T06:53:11.390Z,4.97
2019-05-25T06:55:42.818Z,3.30
2019-05-25T06:58:13.814Z,2.23
2019-05-25T07:00:45.264Z,3.27
2019-05-25T07:03:16.179Z,6.27
2019-05-25T07:05:47.008Z,4.17
2019-05-25T07:08:18.796Z,3.83
2019-05-25T07:10:51.216Z,4.00
2019-05-25T07:13:22.304Z,4.30
2019-05-25T07:15:53.097Z,4.47
2019-05-25T07:18:23.945Z,5.90
2019-05-25T07:20:54.844Z,7.27
2019-05-25T07:23:26.025Z,4.80
2019-05-25T07:25:59.338Z,5.33
2019-05-25T07:28:30.303Z,5.13
2019-05-25T07:31:01.097Z,4.77
2019-05-25T07:33:31.860Z,4.47
2019-05-25T07:36:07.367Z,4.07
2019-05-25T07:38:35.026Z,5.70
2019-05-25T07:41:05.946Z,3.63
2019-05-25T07:43:36.896Z,3.87
2019-05-25T07:46:07.890Z,5.73
2019-05-25T07:48:38.758Z,4.23
2019-05-25T07:51:09.676Z,4.63
2019-05-25T07:53:40.443Z,4.23
2019-05-25T07:56:11.410Z,3.57
2019-05-25T07:58:42.183Z,4.10
2019-05-25T08:01:13.080Z,2.77
2019-05-25T08:03:43.960Z,5.93
2019-05-25T08:06:14.983Z,3.63
2019-05-25T08:08:45.818Z,4.33
2019-05-25T08:11:16.685Z,4.53
2019-05-25T08:13:48.644Z,5.63
2019-05-25T08:16:19.569Z,7.07
2019-05-25T08:18:50.348Z,4.80
2019-05-25T08:21:21.440Z,5.57
2019-05-25T08:23:52.406Z,7.07
2019-05-25T08:26:23.516Z,2.93
2019-05-25T08:28:54.478Z,5.53
2019-05-25T08:31:25.409Z,6.20
2019-05-25T08:33:56.279Z,6.60
2019-05-25T08:36:29.771Z,5.33
2019-05-25T08:38:59.609Z,8.53
2019-05-25T08:41:30.462Z,5.90
2019-05-25T08:44:04.422Z,4.97
2019-05-25T08:46:34.883Z,5.10
2019-05-25T08:49:08.113Z,5.13
2019-05-25T08:51:40.956Z,3.23
2019-05-25T08:54:11.716Z,4.97
2019-05-25T08:56:43.702Z,3.70
2019-05-25T08:59:16.101Z,4.70
2019-05-25T09:01:46.988Z,5.53
2019-05-25T09:04:17.846Z,5.87
2019-05-25T09:06:48.715Z,4.93
2019-05-25T09:09:19.510Z,6.13
2019-05-25T09:11:50.315Z,4.53
2019-05-25T09:14:21.088Z,4.73
2019-05-25T09:16:51.995Z,3.97
2019-05-25T09:19:23.731Z,6.20
2019-05-25T09:22:02.394Z,7.23
2019-05-25T09:24:27.315Z,4.07
2019-05-25T09:26:59.224Z,6.40
2019-05-25T09:29:30.107Z,8.30
2019-05-25T09:32:00.945Z,5.57
2019-05-25T09:34:31.702Z,4.60
2019-05-25T09:37:02.504Z,5.27
2019-05-25T09:39:33.305Z,4.70
2019-05-25T09:42:04.134Z,5.80
2019-05-25T09:44:34.913Z,8.97
2019-05-25T09:47:05.967Z,4.77
2019-05-25T09:49:36.713Z,5.73
2019-05-25T09:52:07.775Z,4.87
2019-05-25T09:54:38.513Z,9.30
2019-05-25T09:57:09.589Z,9.50
2019-05-25T09:59:40.389Z,6.30
2019-05-25T10:02:11.414Z,7.23
2019-05-25T10:04:42.276Z,5.30
2019-05-25T10:07:13.152Z,7.53
2019-05-25T10:09:44.039Z,3.30
2019-05-25T10:12:16.307Z,4.20
2019-05-25T10:14:50.071Z,5.70
2019-05-25T10:17:20.987Z,5.27
2019-05-25T10:19:51.714Z,5.27
2019-05-25T10:22:22.569Z,4.90
2019-05-25T10:24:53.343Z,7.50
2019-05-25T10:27:25.022Z,5.17
2019-05-25T10:29:56.399Z,6.90
2019-05-25T10:32:30.121Z,4.00
2019-05-25T10:35:01.730Z,5.83
2019-05-25T10:37:32.531Z,5.43
2019-05-25T10:40:03.446Z,6.23
2019-05-25T10:42:35.483Z,5.60
2019-05-25T10:45:07.770Z,5.47
2019-05-25T10:47:38.692Z,4.63
2019-05-25T10:50:10.182Z,6.60
2019-05-25T10:52:41.034Z,5.77
2019-05-25T10:55:12.289Z,4.83
2019-05-25T10:57:43.122Z,6.33
2019-05-25T11:00:14.811Z,3.67
2019-05-25T11:02:45.747Z,3.83
2019-05-25T11:05:17.085Z,5.13
2019-05-25T11:07:47.926Z,3.90
2019-05-25T11:10:18.869Z,5.57
2019-05-25T11:12:50.705Z,5.33
2019-05-25T11:15:22.607Z,4.83
2019-05-25T11:17:53.409Z,6.03
2019-05-25T11:20:25.130Z,5.87
2019-05-25T11:22:55.942Z,4.63
2019-05-25T11:25:26.885Z,4.80
2019-05-25T11:27:57.694Z,12.10
2019-05-25T11:30:28.592Z,4.60
2019-05-25T11:32:59.575Z,5.37
2019-05-25T11:35:30.387Z,4.03
2019-05-25T11:38:04.402Z,4.47
2019-05-25T11:40:36.410Z,8.77
2019-05-25T11:43:07.191Z,5.27
2019-05-25T11:45:39.601Z,5.67
2019-05-25T11:48:10.813Z,3.83
2019-05-25T11:53:26.625Z,20.40
2019-05-25T11:55:58.919Z,4.80
2019-05-25T11:58:46.593Z,5.27
2019-05-25T12:01:05.516Z,3.03
2019-05-25T12:03:37.040Z,2.37
2019-05-25T12:06:07.842Z,4.13
2019-05-25T12:08:39.393Z,2.93
2019-05-25T12:11:10.126Z,7.33
2019-05-25T12:13:40.937Z,4.00
2019-05-25T12:16:14.775Z,7.70
2019-05-25T12:18:46.349Z,2.97
2019-05-25T12:21:17.277Z,4.17
2019-05-25T12:23:48.984Z,3.53
2019-05-25T12:26:20.918Z,5.50
2019-05-25T12:28:53.090Z,4.27
2019-05-25T12:31:24.606Z,4.63
2019-05-25T12:33:56.404Z,4.00
2019-05-25T12:36:28.468Z,4.13
2019-05-25T12:39:00.352Z,3.97
2019-05-25T12:41:31.937Z,7.30
2019-05-25T12:44:03.729Z,6.37
2019-05-25T12:46:34.728Z,7.67
2019-05-25T12:49:05.744Z,3.37
2019-05-25T12:51:36.512Z,3.27
2019-05-25T12:54:07.316Z,5.80
2019-05-25T12:56:38.091Z,4.17
2019-05-25T12:59:08.942Z,6.43
2019-05-25T13:01:39.682Z,3.50
2019-05-25T13:04:10.592Z,4.57
2019-05-25T13:06:42.163Z,5.23
2019-05-25T13:09:13.071Z,4.50
2019-05-25T13:11:44.520Z,4.77
2019-05-25T13:14:28.106Z,3.37
2019-05-25T13:17:05.470Z,3.87
2019-05-25T13:19:36.382Z,4.77
2019-05-25T13:22:07.195Z,6.07
2019-05-25T13:24:42.697Z,9.93
2019-05-25T13:27:13.472Z,4.27
2019-05-25T13:29:45.667Z,5.23
2019-05-25T13:32:17.469Z,5.63
2019-05-25T13:34:48.309Z,3.43
2019-05-25T13:37:44.759Z,8.30
2019-05-25T13:41:17.721Z,5.07
2019-05-25T13:44:09.219Z,5.40
2019-05-25T13:50:42.910Z,4.57
2019-05-25T13:53:17.170Z,6.53
2019-05-25T13:55:48.577Z,4.73
2019-05-25T13:58:20.305Z,5.27
2019-05-25T14:00:51.788Z,12.07
2019-05-25T14:03:33.721Z,5.13
2019-05-25T14:06:06.428Z,4.37
2019-05-25T14:08:38.418Z,9.33
2019-05-25T14:11:13.359Z,3.67
2019-05-25T14:13:46.874Z,5.70
2019-05-25T14:16:18.695Z,4.07
2019-05-25T14:18:51.029Z,4.27
2019-05-25T14:21:39.731Z,4.80
2019-05-25T14:24:19.647Z,3.30
2019-05-25T14:27:05.705Z,3.90
2019-05-25T14:29:53.440Z,4.33
2019-05-25T14:32:37.974Z,2.73
2019-05-25T14:35:09.537Z,6.33
2019-05-25T14:37:41.266Z,3.83
2019-05-25T14:40:16.908Z,3.83
2019-05-25T14:42:48.859Z,7.00
2019-05-25T14:45:21.812Z,5.63
2019-05-25T14:47:53.713Z,4.70
2019-05-25T14:50:25.287Z,3.67
2019-05-25T14:52:57.104Z,4.57
2019-05-25T14:55:29.270Z,7.97
2019-05-25T14:58:00.732Z,5.60
2019-05-25T15:00:32.242Z,4.87
2019-05-25T15:03:03.646Z,6.23
2019-05-25T15:05:36.157Z,3.90
2019-05-25T15:08:08.541Z,4.97
2019-05-25T15:10:39.985Z,6.03
2019-05-25T15:13:11.344Z,7.50
2019-05-25T15:15:42.662Z,3.67
2019-05-25T15:18:13.916Z,3.97
2019-05-25T15:20:45.593Z,12.10
2019-05-25T15:23:16.656Z,3.83
2019-05-25T15:25:48.129Z,7.77
2019-05-25T15:28:19.269Z,7.20
2019-05-25T15:30:50.871Z,7.43
2019-05-25T15:33:22.095Z,6.20
2019-05-25T15:35:53.534Z,5.07
2019-05-25T15:38:25.174Z,6.57
2019-05-25T15:40:56.631Z,7.33
2019-05-25T15:43:37.907Z,6.93
2019-05-25T15:46:10.537Z,9.30
2019-05-25T15:48:44.186Z,14.37
2019-05-25T15:51:15.468Z,4.97
2019-05-25T15:53:47.657Z,5.87
2019-05-25T15:56:18.619Z,4.30
2019-05-25T15:58:58.221Z,5.87
2019-05-25T16:01:31.931Z,6.53
2019-05-25T16:04:04.024Z,10.20
2019-05-25T16:06:35.959Z,4.90
2019-05-25T16:09:08.282Z,5.07
2019-05-25T16:11:39.463Z,5.87
2019-05-25T16:14:15.041Z,7.37
2019-05-25T16:20:21.379Z,6.90
2019-05-25T16:22:55.680Z,7.47
2019-05-25T16:25:26.501Z,5.63
2019-05-25T16:27:57.516Z,3.93
2019-05-25T16:33:13.143Z,5.93
2019-05-25T16:36:29.992Z,7.90
2019-05-25T16:37:07.604Z,7.77
2019-05-25T16:39:08.661Z,4.13
2019-05-25T16:41:39.644Z,5.30
2019-05-25T16:44:14.099Z,2.67
2019-05-25T16:46:45.748Z,3.77
2019-05-25T16:49:16.927Z,2.10
2019-05-25T16:51:48.608Z,3.53
2019-05-25T16:54:19.501Z,2.67
2019-05-25T16:56:50.523Z,3.53
2019-05-25T16:59:21.380Z,5.83
2019-05-25T17:02:00.056Z,4.87
2019-05-25T17:04:34.007Z,4.57
2019-05-25T17:07:05.020Z,3.67
2019-05-25T17:09:35.957Z,8.23
2019-05-25T17:12:07.105Z,4.17
2019-05-25T17:14:38.003Z,6.27
2019-05-25T17:17:08.973Z,7.03
2019-05-25T17:19:39.831Z,9.90
2019-05-25T17:22:10.771Z,8.07
2019-05-25T17:24:41.730Z,5.73
2019-05-25T17:27:12.791Z,7.57
2019-05-25T17:29:43.518Z,2.83
2019-05-25T17:32:14.310Z,4.27
2019-05-25T17:34:46.240Z,5.60
2019-05-25T17:37:16.956Z,5.23
2019-05-25T17:39:48.403Z,6.20
2019-05-25T17:42:19.105Z,5.23
2019-05-25T17:44:49.940Z,3.97
2019-05-25T17:47:20.752Z,5.73
2019-05-25T17:49:51.558Z,5.70
2019-05-25T17:52:23.052Z,4.23
2019-05-25T17:54:54.266Z,3.77
2019-05-25T17:57:24.936Z,5.73
2019-05-25T17:59:59.266Z,5.70
2019-05-25T18:02:28.081Z,3.53
2019-05-25T18:04:58.844Z,4.83
2019-05-25T18:07:32.569Z,4.23
2019-05-25T18:10:03.403Z,19.63
2019-05-25T18:12:46.540Z,41.47
2019-05-25T18:15:22.347Z,5.40
2019-05-25T18:18:23.052Z,6.23
2019-05-25T18:20:53.900Z,7.83
2019-05-25T18:23:45.175Z,3.77
2019-05-25T18:26:16.690Z,5.53
2019-05-25T18:28:47.497Z,7.57
2019-05-25T18:31:18.300Z,9.63
2019-05-25T18:34:21.742Z,5.43
2019-05-25T18:36:51.020Z,5.53
2019-05-25T18:39:32.482Z,6.47
2019-05-25T18:42:20.810Z,10.43
2019-05-25T18:45:10.972Z,8.87
2019-05-25T18:47:41.910Z,11.47
2019-05-25T18:50:12.936Z,8.77
2019-05-25T18:52:43.782Z,5.97
2019-05-25T18:55:14.662Z,7.80
2019-05-25T18:57:45.431Z,6.57
2019-05-25T19:00:17.770Z,10.40
2019-05-25T19:02:48.897Z,10.23
2019-05-25T19:05:19.799Z,9.77
2019-05-25T19:07:50.665Z,11.60
2019-05-25T19:10:21.647Z,12.27
2019-05-25T19:12:52.615Z,13.73
2019-05-25T19:15:23.670Z,12.97
2019-05-25T19:17:54.481Z,12.53
2019-05-25T19:20:26.076Z,21.60
2019-05-25T19:22:58.863Z,15.20
2019-05-25T19:25:30.387Z,12.43
2019-05-25T19:28:01.934Z,16.67
2019-05-25T19:30:33.328Z,12.63
2019-05-25T19:33:05.080Z,10.93
2019-05-25T19:35:36.764Z,13.90
2019-05-25T19:38:08.705Z,13.27
2019-05-25T19:40:40.780Z,13.10
2019-05-25T19:43:15.446Z,15.20
2019-05-25T19:45:47.533Z,13.37
2019-05-25T19:48:22.129Z,12.17
2019-05-25T19:50:56.177Z,12.17
2019-05-25T19:53:27.923Z,10.80
2019-05-25T19:55:59.682Z,11.53
2019-05-25T19:58:31.454Z,10.73
2019-05-25T20:01:03.226Z,12.00
2019-05-25T20:03:34.774Z,12.33
2019-05-25T20:06:06.739Z,10.10
2019-05-25T20:08:38.473Z,12.43
2019-05-25T20:11:10.379Z,11.50
2019-05-25T20:13:42.273Z,13.60
2019-05-25T20:16:13.931Z,12.07
2019-05-25T20:18:44.844Z,12.67
2019-05-25T20:21:15.612Z,13.93
2019-05-25T20:23:46.448Z,18.37
2019-05-25T20:26:17.220Z,13.37
2019-05-25T20:28:50.663Z,16.73
2019-05-25T20:31:20.437Z,13.10
2019-05-25T20:33:51.263Z,9.67
2019-05-25T20:36:22.222Z,9.87
2019-05-25T20:38:53.023Z,8.30
2019-05-25T20:41:23.884Z,6.53
2019-05-25T20:43:54.705Z,10.47
2019-05-25T20:46:25.664Z,9.63
2019-05-25T20:48:56.612Z,9.10
2019-05-25T20:51:27.543Z,11.30
2019-05-25T20:53:58.454Z,10.87
2019-05-25T20:56:29.288Z,11.17
2019-05-25T20:59:01.213Z,11.00
2019-05-25T21:01:32.009Z,13.40
2019-05-25T21:04:02.859Z,14.90
2019-05-25T21:06:34.940Z,13.20
2019-05-25T21:09:07.861Z,9.60
2019-05-25T21:11:38.709Z,11.10
2019-05-25T21:14:09.669Z,10.80
2019-05-25T21:16:40.617Z,13.33
2019-05-25T21:19:11.543Z,15.17
2019-05-25T21:21:43.300Z,12.73
2019-05-25T21:24:14.131Z,14.17
2019-05-25T21:26:44.978Z,11.13
2019-05-25T21:29:15.807Z,10.70
2019-05-25T21:31:50.028Z,14.03
2019-05-25T21:34:20.912Z,10.20
2019-05-25T21:36:51.683Z,9.90
2019-05-25T21:39:22.505Z,10.03
2019-05-25T21:41:53.259Z,13.10
2019-05-25T21:44:24.227Z,11.43
2019-05-25T21:46:55.048Z,10.67
2019-05-25T21:49:27.144Z,9.63
2019-05-25T21:51:57.996Z,8.00
2019-05-25T21:54:28.926Z,11.67
2019-05-25T21:56:59.844Z,11.57
2019-05-25T21:59:32.788Z,9.77
2019-05-25T22:02:03.193Z,9.83
2019-05-25T22:04:34.065Z,10.73
2019-05-25T22:07:05.061Z,12.33
2019-05-25T22:09:35.895Z,12.40
2019-05-25T22:12:06.794Z,11.87
2019-05-25T22:14:37.601Z,11.50
2019-05-25T22:17:08.480Z,8.87
2019-05-25T22:19:39.359Z,10.33
2019-05-25T22:22:10.232Z,11.47
2019-05-25T22:24:41.037Z,8.17
2019-05-25T22:27:11.796Z,9.70
2019-05-25T22:29:42.915Z,11.43
2019-05-25T22:32:13.707Z,9.27
2019-05-25T22:34:44.512Z,8.27
2019-05-25T22:37:15.317Z,10.77
2019-05-25T22:39:46.124Z,9.90
2019-05-25T22:42:16.909Z,7.63
2019-05-25T22:44:47.733Z,10.07
2019-05-25T22:47:18.496Z,9.37
2019-05-25T22:49:49.397Z,11.47
2019-05-25T22:52:20.172Z,10.10
2019-05-25T22:54:51.090Z,10.70
2019-05-25T22:57:21.977Z,8.67
2019-05-25T22:59:52.860Z,11.17
2019-05-25T23:02:23.686Z,7.93
2019-05-25T23:04:54.510Z,12.90
2019-05-25T23:07:25.262Z,10.60
2019-05-25T23:09:56.063Z,11.30
2019-05-25T23:12:26.808Z,12.27
2019-05-25T23:14:57.659Z,12.33
2019-05-25T23:17:28.429Z,12.57
2019-05-25T23:19:59.274Z,8.33
2019-05-25T23:22:30.141Z,9.17
2019-05-25T23:25:01.416Z,12.83
2019-05-25T23:27:32.233Z,13.00
2019-05-25T23:30:03.166Z,10.23
2019-05-25T23:32:34.023Z,11.20
2019-05-25T23:35:05.107Z,11.50
2019-05-25T23:37:35.995Z,10.73
2019-05-25T23:40:07.659Z,9.60
2019-05-25T23:42:38.419Z,9.47
2019-05-25T23:45:09.773Z,9.40
2019-05-25T23:47:40.617Z,8.77
2019-05-25T23:50:11.734Z,8.93
2019-05-25T23:52:42.535Z,9.63
2019-05-25T23:55:14.114Z,10.27
2019-05-25T23:57:44.822Z,7.43
